createdAt,value
2017-05-18T00:00:40.899Z,0
2017-05-18T00:01:56.460Z,0
2017-05-18T00:03:10.510Z,0
2017-05-18T00:04:24.621Z,0
2017-05-18T00:05:38.788Z,0
2017-05-18T00:06:54.317Z,0
2017-05-18T00:08:08.271Z,0
2017-05-18T00:09:23.697Z,0
2017-05-18T00:10:37.741Z,0
2017-05-18T00:11:53.075Z,0
2017-05-18T00:13:07.406Z,0
2017-05-18T00:14:22.823Z,0
2017-05-18T00:15:38.185Z,0
2017-05-18T00:16:53.536Z,0
2017-05-18T00:18:07.873Z,0
2017-05-18T00:19:20.657Z,0
2017-05-18T00:20:36.064Z,0
2017-05-18T00:21:49.756Z,0
2017-05-18T00:23:02.633Z,0
2017-05-18T00:24:17.960Z,0
2017-05-18T00:25:33.303Z,0
2017-05-18T00:26:48.272Z,0
2017-05-18T00:28:04.041Z,0
2017-05-18T00:29:19.397Z,0
2017-05-18T00:30:34.728Z,0
2017-05-18T00:31:50.103Z,0
2017-05-18T00:33:04.295Z,0
2017-05-18T00:34:19.684Z,0
2017-05-18T00:35:33.760Z,0
2017-05-18T00:36:49.096Z,0
2017-05-18T00:38:03.353Z,0
2017-05-18T00:39:16.220Z,0
2017-05-18T00:40:31.555Z,0
2017-05-18T00:41:45.840Z,0
2017-05-18T00:43:01.194Z,0
2017-05-18T00:44:16.723Z,0
2017-05-18T00:45:29.557Z,0
2017-05-18T00:46:44.893Z,0
2017-05-18T00:47:59.035Z,0
2017-05-18T00:49:14.636Z,0
2017-05-18T00:50:27.389Z,0
2017-05-18T00:51:42.857Z,0
2017-05-18T00:52:56.778Z,0
2017-05-18T00:54:43.181Z,0
2017-05-18T00:55:58.535Z,0
2017-05-18T00:57:13.869Z,0
2017-05-18T00:58:27.790Z,0
2017-05-18T00:59:42.139Z,0
2017-05-18T01:00:57.719Z,0
2017-05-18T01:02:10.415Z,0
2017-05-18T01:03:24.503Z,0
2017-05-18T01:04:40.171Z,0
2017-05-18T01:05:55.395Z,0
2017-05-18T01:07:09.435Z,0
2017-05-18T01:08:24.804Z,0
2017-05-18T01:09:37.807Z,0
2017-05-18T01:10:53.376Z,0
2017-05-18T01:12:08.824Z,0
2017-05-18T01:13:24.165Z,0
2017-05-18T01:14:38.570Z,0
2017-05-18T01:15:53.902Z,0
2017-05-18T01:17:09.261Z,0
2017-05-18T01:18:22.251Z,0
2017-05-18T01:19:36.571Z,0
2017-05-18T01:20:51.945Z,0
2017-05-18T01:22:05.998Z,0
2017-05-18T01:23:21.341Z,0
2017-05-18T01:24:36.894Z,0
2017-05-18T01:25:52.465Z,0
2017-05-18T01:27:06.579Z,0
2017-05-18T01:28:21.913Z,0
2017-05-18T01:29:37.688Z,0
2017-05-18T01:30:53.041Z,0
2017-05-18T01:32:08.401Z,0
2017-05-18T01:33:23.744Z,0
2017-05-18T01:34:39.472Z,0
2017-05-18T01:35:54.970Z,0
2017-05-18T01:37:09.029Z,0
2017-05-18T01:38:23.145Z,0
2017-05-18T01:39:38.517Z,0
2017-05-18T01:40:51.391Z,0
2017-05-18T01:42:06.765Z,0
2017-05-18T01:43:20.903Z,0
2017-05-18T01:44:34.949Z,0
2017-05-18T01:45:50.510Z,0
2017-05-18T01:47:05.864Z,0
2017-05-18T01:48:18.498Z,0
2017-05-18T01:49:32.475Z,0
2017-05-18T01:50:48.087Z,0
2017-05-18T01:52:02.114Z,0
2017-05-18T01:53:17.472Z,0
2017-05-18T01:54:32.873Z,0
2017-05-18T01:55:48.454Z,0
2017-05-18T01:57:04.104Z,0
2017-05-18T01:58:18.164Z,0
2017-05-18T01:59:32.066Z,0
2017-05-18T02:00:47.718Z,0
2017-05-18T02:02:03.195Z,0
2017-05-18T02:03:17.643Z,0
2017-05-18T02:05:02.422Z,0
2017-05-18T02:06:17.942Z,0
2017-05-18T02:07:32.043Z,0
2017-05-18T02:08:44.815Z,0
2017-05-18T02:09:58.918Z,0
2017-05-18T02:11:14.528Z,0
2017-05-18T02:12:25.869Z,0
2017-05-18T02:13:39.913Z,0
2017-05-18T02:14:55.352Z,0
2017-05-18T02:16:10.906Z,0
2017-05-18T02:17:25.196Z,0
2017-05-18T02:18:40.532Z,0
2017-05-18T02:19:51.907Z,0
2017-05-18T02:21:07.240Z,0
2017-05-18T02:22:21.478Z,0
2017-05-18T02:23:36.818Z,0
2017-05-18T02:24:52.166Z,0
2017-05-18T02:26:07.530Z,0
2017-05-18T02:27:21.808Z,0
2017-05-18T02:28:37.290Z,0
2017-05-18T02:29:51.362Z,0
2017-05-18T02:31:06.721Z,0
2017-05-18T02:32:21.248Z,0
2017-05-18T02:33:34.019Z,0
2017-05-18T02:34:48.063Z,0
2017-05-18T02:36:03.420Z,0
2017-05-18T02:37:19.002Z,0
2017-05-18T02:38:33.108Z,0
2017-05-18T02:39:48.502Z,0
2017-05-18T02:41:03.831Z,0
2017-05-18T02:42:19.538Z,0
2017-05-18T02:43:34.924Z,0
2017-05-18T02:44:50.302Z,0
2017-05-18T02:46:05.643Z,0
2017-05-18T02:47:21.194Z,0
2017-05-18T02:48:36.525Z,0
2017-05-18T02:49:51.894Z,0
2017-05-18T02:51:07.309Z,0
2017-05-18T02:52:23.188Z,0
2017-05-18T02:53:38.533Z,0
2017-05-18T02:54:52.622Z,0
2017-05-18T02:56:06.661Z,0
2017-05-18T02:57:19.672Z,0
2017-05-18T02:58:32.431Z,0
2017-05-18T02:59:46.492Z,0
2017-05-18T03:01:01.842Z,0
2017-05-18T03:02:17.190Z,5
2017-05-18T03:03:32.571Z,5
2017-05-18T03:04:46.667Z,5
2017-05-18T03:06:02.003Z,5
2017-05-18T03:07:15.912Z,5
2017-05-18T03:08:31.535Z,5
2017-05-18T03:09:45.606Z,5
2017-05-18T03:11:00.978Z,10
2017-05-18T03:12:16.334Z,10
2017-05-18T03:13:29.170Z,10
2017-05-18T03:14:44.547Z,10
2017-05-18T03:15:59.893Z,10
2017-05-18T03:17:13.578Z,10
2017-05-18T03:18:29.135Z,15
2017-05-18T03:19:44.493Z,15
2017-05-18T03:20:58.624Z,15
2017-05-18T03:22:13.963Z,20
2017-05-18T03:23:28.305Z,20
2017-05-18T03:24:42.604Z,20
2017-05-18T03:25:57.946Z,25
2017-05-18T03:27:12.014Z,25
2017-05-18T03:28:26.125Z,25
2017-05-18T03:29:41.679Z,30
2017-05-18T03:30:55.757Z,30
2017-05-18T03:32:11.125Z,30
2017-05-18T03:33:26.484Z,35
2017-05-18T03:34:42.212Z,35
2017-05-18T03:35:57.625Z,40
2017-05-18T03:37:12.969Z,40
2017-05-18T03:38:28.348Z,40
2017-05-18T03:39:43.918Z,45
2017-05-18T03:40:57.855Z,45
2017-05-18T03:42:11.908Z,45
2017-05-18T03:43:24.752Z,50
2017-05-18T03:44:39.018Z,50
2017-05-18T03:45:54.402Z,55
2017-05-18T03:47:08.466Z,55
2017-05-18T03:48:22.540Z,55
2017-05-18T03:49:38.090Z,60
2017-05-18T03:50:52.168Z,60
2017-05-18T03:52:07.516Z,65
2017-05-18T03:53:20.566Z,65
2017-05-18T03:54:36.179Z,65
2017-05-18T03:55:50.609Z,70
2017-05-18T03:57:04.729Z,70
2017-05-18T03:58:20.092Z,75
2017-05-18T03:59:33.173Z,75
2017-05-18T04:00:47.568Z,80
2017-05-18T04:02:02.947Z,80
2017-05-18T04:03:14.453Z,80
2017-05-18T04:04:30.041Z,85
2017-05-18T04:05:45.625Z,90
2017-05-18T04:07:01.088Z,90
2017-05-18T04:08:15.325Z,90
2017-05-18T04:09:29.386Z,90
2017-05-18T04:10:44.967Z,95
2017-05-18T04:12:00.290Z,95
2017-05-18T04:13:15.290Z,95
2017-05-18T04:14:29.346Z,100
2017-05-18T04:15:44.959Z,100
2017-05-18T04:16:59.077Z,105
2017-05-18T04:18:12.102Z,105
2017-05-18T04:19:27.480Z,110
2017-05-18T04:20:43.025Z,110
2017-05-18T04:21:58.387Z,115
2017-05-18T04:23:13.729Z,110
2017-05-18T04:24:29.124Z,115
2017-05-18T04:25:44.877Z,115
2017-05-18T04:27:00.222Z,115
2017-05-18T04:28:15.555Z,120
2017-05-18T04:29:30.934Z,120
2017-05-18T04:30:46.565Z,120
2017-05-18T04:32:00.855Z,125
2017-05-18T04:33:16.292Z,125
2017-05-18T04:34:31.625Z,125
2017-05-18T04:35:44.579Z,130
2017-05-18T04:36:59.935Z,135
2017-05-18T04:38:12.690Z,135
2017-05-18T04:39:27.658Z,135
2017-05-18T04:41:14.199Z,140
2017-05-18T04:42:28.254Z,140
2017-05-18T04:43:43.593Z,140
2017-05-18T04:44:57.656Z,145
2017-05-18T04:46:13.256Z,145
2017-05-18T04:47:28.634Z,145
2017-05-18T04:48:42.336Z,150
2017-05-18T04:49:57.680Z,150
2017-05-18T04:51:13.311Z,150
2017-05-18T04:52:28.641Z,150
2017-05-18T04:53:42.682Z,155
2017-05-18T04:54:54.156Z,155
2017-05-18T04:56:08.440Z,155
2017-05-18T04:57:23.780Z,155
2017-05-18T04:58:37.472Z,160
2017-05-18T04:59:51.529Z,160
2017-05-18T05:01:07.397Z,165
2017-05-18T05:02:21.438Z,165
2017-05-18T05:03:34.210Z,165
2017-05-18T05:04:49.558Z,170
2017-05-18T05:06:05.112Z,170
2017-05-18T05:07:17.607Z,165
2017-05-18T05:08:31.677Z,165
2017-05-18T05:09:47.016Z,170
2017-05-18T05:11:02.398Z,170
2017-05-18T05:12:18.064Z,170
2017-05-18T05:13:33.868Z,175
2017-05-18T05:14:48.972Z,180
2017-05-18T05:16:04.498Z,175
2017-05-18T05:17:20.046Z,180
2017-05-18T05:18:35.026Z,180
2017-05-18T05:19:50.447Z,180
2017-05-18T05:21:04.517Z,180
2017-05-18T05:22:20.063Z,180
2017-05-18T05:23:34.129Z,180
2017-05-18T05:24:48.216Z,190
2017-05-18T05:26:02.258Z,185
2017-05-18T05:27:16.783Z,185
2017-05-18T05:28:32.139Z,185
2017-05-18T05:29:47.597Z,185
2017-05-18T05:31:01.653Z,190
2017-05-18T05:32:15.931Z,195
2017-05-18T05:33:29.992Z,190
2017-05-18T05:34:45.383Z,190
2017-05-18T05:35:56.872Z,195
2017-05-18T05:37:10.944Z,195
2017-05-18T05:38:26.480Z,195
2017-05-18T05:39:40.558Z,200
2017-05-18T05:40:56.140Z,200
2017-05-18T05:42:10.201Z,205
2017-05-18T05:43:24.311Z,205
2017-05-18T05:44:39.700Z,205
2017-05-18T05:45:55.225Z,205
2017-05-18T05:47:07.858Z,210
2017-05-18T05:48:22.228Z,210
2017-05-18T05:49:36.361Z,210
2017-05-18T05:50:51.402Z,210
2017-05-18T05:52:06.748Z,215
2017-05-18T05:53:22.302Z,215
2017-05-18T05:54:37.642Z,215
2017-05-18T05:55:52.989Z,220
2017-05-18T05:57:08.402Z,220
2017-05-18T05:58:21.237Z,220
2017-05-18T05:59:36.578Z,225
2017-05-18T06:00:50.859Z,225
2017-05-18T06:02:06.251Z,225
2017-05-18T06:03:21.845Z,230
2017-05-18T06:04:37.190Z,230
2017-05-18T06:05:51.175Z,230
2017-05-18T06:07:06.803Z,235
2017-05-18T06:08:22.587Z,235
2017-05-18T06:09:37.992Z,235
2017-05-18T06:10:52.077Z,235
2017-05-18T06:12:07.646Z,240
2017-05-18T06:13:23.235Z,240
2017-05-18T06:14:38.612Z,240
2017-05-18T06:15:52.716Z,240
2017-05-18T06:17:06.655Z,245
2017-05-18T06:18:22.205Z,245
2017-05-18T06:19:37.587Z,245
2017-05-18T06:20:52.960Z,245
2017-05-18T06:22:08.340Z,245
2017-05-18T06:23:22.590Z,250
2017-05-18T06:24:38.135Z,245
2017-05-18T06:25:53.465Z,250
2017-05-18T06:27:06.094Z,250
2017-05-18T06:28:21.674Z,250
2017-05-18T06:29:37.229Z,250
2017-05-18T06:30:51.288Z,250
2017-05-18T06:32:03.921Z,255
2017-05-18T06:33:18.010Z,255
2017-05-18T06:34:33.551Z,255
2017-05-18T06:35:48.902Z,255
2017-05-18T06:37:04.249Z,260
2017-05-18T06:38:19.592Z,260
2017-05-18T06:39:33.847Z,260
2017-05-18T06:40:49.221Z,265
2017-05-18T06:42:04.617Z,265
2017-05-18T06:43:19.948Z,270
2017-05-18T06:44:35.531Z,270
2017-05-18T06:45:50.981Z,270
2017-05-18T06:47:06.342Z,275
2017-05-18T06:48:20.397Z,275
2017-05-18T06:49:35.945Z,280
2017-05-18T06:50:51.321Z,280
2017-05-18T06:52:06.703Z,285
2017-05-18T06:53:22.066Z,285
2017-05-18T06:54:37.606Z,285
2017-05-18T06:55:51.659Z,290
2017-05-18T06:57:07.029Z,290
2017-05-18T06:58:21.135Z,290
2017-05-18T06:59:36.702Z,290
2017-05-18T07:00:51.681Z,295
2017-05-18T07:02:07.076Z,295
2017-05-18T07:03:19.841Z,295
2017-05-18T07:04:32.607Z,295
2017-05-18T07:05:47.135Z,295
2017-05-18T07:07:02.476Z,295
2017-05-18T07:08:17.920Z,300
2017-05-18T07:09:32.026Z,305
2017-05-18T07:10:47.574Z,310
2017-05-18T07:12:02.925Z,305
2017-05-18T07:13:18.301Z,310
2017-05-18T07:14:30.951Z,315
2017-05-18T07:15:46.553Z,315
2017-05-18T07:17:01.904Z,315
2017-05-18T07:18:15.833Z,320
2017-05-18T07:19:31.199Z,325
2017-05-18T07:20:46.756Z,330
2017-05-18T07:22:02.182Z,335
2017-05-18T07:23:16.276Z,340
2017-05-18T07:24:31.620Z,345
2017-05-18T07:25:47.214Z,350
2017-05-18T07:27:02.581Z,350
2017-05-18T07:28:17.988Z,355
2017-05-18T07:29:32.047Z,360
2017-05-18T07:30:46.295Z,370
2017-05-18T07:32:01.666Z,375
2017-05-18T07:33:17.128Z,380
2017-05-18T07:34:32.529Z,380
2017-05-18T07:35:48.380Z,390
2017-05-18T07:37:03.798Z,395
2017-05-18T07:38:19.196Z,400
2017-05-18T07:39:33.119Z,400
2017-05-18T07:40:48.794Z,400
2017-05-18T07:42:04.150Z,405
2017-05-18T07:43:19.523Z,410
2017-05-18T07:44:34.872Z,415
2017-05-18T07:45:50.470Z,420
2017-05-18T07:47:10.802Z,425
2017-05-18T07:48:26.380Z,430
2017-05-18T07:49:40.435Z,425
2017-05-18T07:50:54.627Z,415
2017-05-18T08:00:43.977Z,410
2017-05-18T08:01:59.339Z,405
2017-05-18T08:03:14.678Z,405
2017-05-18T08:04:30.037Z,410
2017-05-18T08:05:45.623Z,410
2017-05-18T08:06:59.558Z,415
2017-05-18T08:08:15.006Z,425
2017-05-18T08:09:29.173Z,430
2017-05-18T08:10:44.775Z,430
2017-05-18T08:12:00.153Z,430
2017-05-18T08:13:15.887Z,435
2017-05-18T08:14:29.826Z,440
2017-05-18T08:15:45.447Z,440
2017-05-18T08:17:00.797Z,445
2017-05-18T08:18:16.293Z,445
2017-05-18T08:19:31.660Z,460
2017-05-18T08:20:46.179Z,460
2017-05-18T08:22:01.522Z,465
2017-05-18T08:23:16.881Z,470
2017-05-18T08:24:32.445Z,475
2017-05-18T08:25:48.076Z,490
2017-05-18T08:27:02.040Z,520
2017-05-18T08:28:17.412Z,570
2017-05-18T08:29:32.787Z,1470
2017-05-18T08:30:48.439Z,3280
2017-05-18T08:32:01.230Z,3135
2017-05-18T08:33:15.274Z,2970
2017-05-18T08:34:28.106Z,3005
2017-05-18T08:35:42.422Z,3090
2017-05-18T08:36:57.871Z,2865
2017-05-18T08:38:12.099Z,2495
2017-05-18T08:39:27.470Z,2375
2017-05-18T08:40:42.643Z,2335
2017-05-18T08:41:57.998Z,2410
2017-05-18T08:43:13.388Z,2465
2017-05-18T08:44:59.668Z,2670
2017-05-18T08:46:14.044Z,2890
2017-05-18T08:47:28.009Z,2965
2017-05-18T08:48:43.360Z,3065
2017-05-18T08:49:57.087Z,2700
2017-05-18T08:51:11.450Z,2860
2017-05-18T08:52:25.560Z,3205
2017-05-18T08:53:40.976Z,3960
2017-05-18T08:54:55.111Z,4370
2017-05-18T08:56:10.676Z,4045
2017-05-18T08:57:26.044Z,3995
2017-05-18T08:58:41.630Z,3740
2017-05-18T08:59:57.018Z,3315
2017-05-18T09:01:09.899Z,3455
2017-05-18T09:02:25.264Z,3675
2017-05-18T09:03:40.753Z,3720
2017-05-18T09:04:56.129Z,3550
2017-05-18T09:06:11.746Z,3320
2017-05-18T09:07:25.845Z,3230
2017-05-18T09:08:39.942Z,3255
2017-05-18T09:09:54.339Z,3400
2017-05-18T09:11:08.603Z,3560
2017-05-18T09:12:21.403Z,3665
2017-05-18T09:13:34.195Z,3815
2017-05-18T09:14:49.602Z,3885
2017-05-18T09:16:03.349Z,3810
2017-05-18T09:17:19.045Z,3615
2017-05-18T09:18:34.523Z,3595
2017-05-18T09:19:49.915Z,3585
2017-05-18T09:21:02.698Z,3515
2017-05-18T09:22:18.516Z,3470
2017-05-18T09:23:31.225Z,3485
2017-05-18T09:24:46.622Z,3510
2017-05-18T09:26:00.928Z,3620
2017-05-18T09:27:16.201Z,3820
2017-05-18T09:28:31.548Z,3905
2017-05-18T09:29:45.754Z,3745
2017-05-18T09:31:01.333Z,3570
2017-05-18T09:32:16.981Z,3450
2017-05-18T09:33:32.070Z,3575
2017-05-18T09:34:47.442Z,3500
2017-05-18T09:36:02.846Z,3520
2017-05-18T09:37:18.062Z,3415
2017-05-18T09:38:33.427Z,3185
2017-05-18T09:39:48.954Z,3180
2017-05-18T09:41:04.595Z,3090
2017-05-18T09:42:20.183Z,3295
2017-05-18T09:43:35.583Z,3625
2017-05-18T09:44:50.943Z,4050
2017-05-18T09:46:03.615Z,4185
2017-05-18T09:47:18.000Z,4200
2017-05-18T09:48:33.366Z,4290
2017-05-18T09:49:48.724Z,4465
2017-05-18T09:51:02.824Z,4425
2017-05-18T09:52:17.128Z,4115
2017-05-18T09:53:32.553Z,3795
2017-05-18T09:54:47.905Z,3620
2017-05-18T09:56:03.346Z,3555
2017-05-18T09:57:18.966Z,3575
2017-05-18T09:58:33.069Z,3790
2017-05-18T09:59:48.520Z,3865
2017-05-18T10:01:03.922Z,3660
2017-05-18T10:02:18.002Z,3545
2017-05-18T10:03:33.554Z,3210
2017-05-18T10:04:48.999Z,3280
2017-05-18T10:06:04.638Z,3895
2017-05-18T10:07:20.089Z,4465
2017-05-18T10:08:32.944Z,4705
2017-05-18T10:09:46.683Z,5020
2017-05-18T10:11:01.682Z,5225
2017-05-18T10:12:17.073Z,5255
2017-05-18T10:13:32.702Z,5205
2017-05-18T10:14:48.093Z,5310
2017-05-18T10:16:03.471Z,5335
2017-05-18T10:17:17.536Z,5205
2017-05-18T10:18:32.737Z,4835
2017-05-18T10:19:48.236Z,4385
2017-05-18T10:21:01.031Z,4250
2017-05-18T10:22:16.398Z,4510
2017-05-18T10:23:29.317Z,4825
2017-05-18T10:24:44.680Z,5275
2017-05-18T10:26:00.085Z,5450
2017-05-18T10:27:14.170Z,5685
2017-05-18T10:28:28.320Z,5850
2017-05-18T10:29:42.426Z,5805
2017-05-18T10:30:55.217Z,5555
2017-05-18T10:32:10.624Z,5140
2017-05-18T10:33:26.431Z,4715
2017-05-18T10:34:41.427Z,4355
2017-05-18T10:35:55.532Z,4095
2017-05-18T10:37:10.918Z,4430
2017-05-18T10:38:26.596Z,4560
2017-05-18T10:39:42.086Z,4535
2017-05-18T10:40:56.250Z,4920
2017-05-18T10:42:11.634Z,5140
2017-05-18T10:43:27.203Z,4970
2017-05-18T10:44:41.305Z,4635
2017-05-18T10:45:52.675Z,4475
2017-05-18T10:47:08.119Z,4470
2017-05-18T10:48:22.240Z,4440
2017-05-18T10:49:37.908Z,4305
2017-05-18T10:50:52.254Z,4350
2017-05-18T10:52:07.251Z,4700
2017-05-18T10:53:19.917Z,4905
2017-05-18T10:54:34.300Z,4935
2017-05-18T10:55:48.501Z,5020
2017-05-18T10:57:03.870Z,5160
2017-05-18T10:58:17.593Z,5255
2017-05-18T10:59:33.231Z,5415
2017-05-18T11:00:48.605Z,5375
2017-05-18T11:02:02.687Z,5165
2017-05-18T11:03:15.489Z,5025
2017-05-18T11:04:31.131Z,4655
2017-05-18T11:05:45.223Z,4535
2017-05-18T11:06:58.136Z,4580
2017-05-18T11:08:13.566Z,4515
2017-05-18T11:09:29.149Z,4600
2017-05-18T11:10:41.943Z,4560
2017-05-18T11:11:57.542Z,4515
2017-05-18T11:13:12.970Z,4635
2017-05-18T11:14:25.629Z,4805
2017-05-18T11:15:39.889Z,5015
2017-05-18T11:16:52.714Z,5215
2017-05-18T11:18:05.519Z,5295
2017-05-18T11:19:19.608Z,5320
2017-05-18T11:20:35.419Z,5310
2017-05-18T11:21:50.916Z,5330
2017-05-18T11:23:06.334Z,5175
2017-05-18T11:24:20.409Z,5030
2017-05-18T11:25:36.285Z,4950
2017-05-18T11:26:51.698Z,4840
2017-05-18T11:28:05.829Z,4560
2017-05-18T11:29:21.211Z,4075
2017-05-18T11:30:36.815Z,4100
2017-05-18T11:31:50.939Z,4415
2017-05-18T11:33:03.623Z,4870
2017-05-18T11:34:19.003Z,4990
2017-05-18T11:35:33.271Z,4865
2017-05-18T11:36:48.685Z,4575
2017-05-18T11:38:02.651Z,4465
2017-05-18T11:39:16.740Z,4525
2017-05-18T11:40:30.814Z,4670
2017-05-18T11:41:46.219Z,4825
2017-05-18T11:42:59.022Z,4785
2017-05-18T11:44:14.429Z,4845
2017-05-18T11:45:29.817Z,5020
2017-05-18T11:46:42.679Z,5175
2017-05-18T11:47:55.470Z,5190
2017-05-18T11:49:09.560Z,4985
2017-05-18T11:50:24.967Z,4755
2017-05-18T11:51:40.621Z,4410
2017-05-18T11:52:53.353Z,4125
2017-05-18T11:54:08.739Z,4060
2017-05-18T11:55:24.132Z,4170
2017-05-18T11:56:39.810Z,4315
2017-05-18T11:57:55.208Z,4435
2017-05-18T11:59:08.042Z,4545
2017-05-18T12:00:23.437Z,4400
2017-05-18T12:01:37.804Z,4295
2017-05-18T12:02:53.199Z,4395
2017-05-18T12:04:08.574Z,4615
2017-05-18T12:05:23.944Z,4680
2017-05-18T12:06:38.275Z,4885
2017-05-18T12:07:51.072Z,4685
2017-05-18T12:09:06.513Z,4300
2017-05-18T12:10:21.878Z,3870
2017-05-18T12:11:36.006Z,3600
2017-05-18T12:12:50.221Z,3195
2017-05-18T12:14:05.629Z,3490
2017-05-18T12:15:19.754Z,3790
2017-05-18T12:16:35.164Z,3945
2017-05-18T12:17:50.825Z,4065
2017-05-18T12:19:06.234Z,4020
2017-05-18T12:20:21.628Z,3865
2017-05-18T12:21:34.429Z,3880
2017-05-18T12:22:47.274Z,3945
2017-05-18T12:24:02.640Z,4010
2017-05-18T12:25:18.079Z,4200
2017-05-18T12:26:33.699Z,4405
2017-05-18T12:27:48.902Z,4620
2017-05-18T12:29:04.322Z,4475
2017-05-18T12:30:19.717Z,4100
2017-05-18T12:31:35.124Z,3760
2017-05-18T12:32:48.132Z,3600
2017-05-18T12:34:00.929Z,3645
2017-05-18T12:35:14.664Z,3890
2017-05-18T12:36:28.418Z,4075
2017-05-18T12:37:42.623Z,4355
2017-05-18T12:38:57.856Z,4385
2017-05-18T12:40:11.999Z,4375
2017-05-18T12:41:25.971Z,4220
2017-05-18T12:42:38.817Z,4240
2017-05-18T12:43:54.466Z,4455
2017-05-18T12:45:09.849Z,4350
2017-05-18T12:46:25.447Z,4305
2017-05-18T12:47:40.815Z,4340
2017-05-18T12:48:56.390Z,4455
2017-05-18T12:50:12.308Z,4370
2017-05-18T12:51:27.734Z,3950
2017-05-18T12:52:41.817Z,3500
2017-05-18T12:53:57.413Z,3430
2017-05-18T12:55:12.782Z,3605
2017-05-18T12:56:26.866Z,3990
2017-05-18T12:57:39.661Z,4160
2017-05-18T12:58:53.943Z,4260
2017-05-18T13:00:09.361Z,4215
2017-05-18T13:01:24.831Z,4150
2017-05-18T13:02:38.931Z,4000
2017-05-18T13:03:54.651Z,3945
2017-05-18T13:05:10.123Z,4140
2017-05-18T13:06:25.508Z,4265
2017-05-18T13:07:40.879Z,4365
2017-05-18T13:08:56.654Z,4210
2017-05-18T13:10:12.020Z,3810
2017-05-18T13:11:27.421Z,3750
2017-05-18T13:12:41.539Z,3550
2017-05-18T13:13:55.632Z,3450
2017-05-18T13:15:11.292Z,3370
2017-05-18T13:16:26.297Z,3385
2017-05-18T13:17:41.696Z,3575
2017-05-18T13:18:55.807Z,3855
2017-05-18T13:20:11.668Z,3910
2017-05-18T13:21:27.109Z,3890
2017-05-18T13:22:42.530Z,3685
2017-05-18T13:23:57.885Z,3535
2017-05-18T13:25:10.754Z,3460
2017-05-18T13:26:24.827Z,3510
2017-05-18T13:27:39.845Z,3660
2017-05-18T13:28:55.239Z,3730
2017-05-18T13:30:10.890Z,3765
2017-05-18T13:31:26.265Z,3660
2017-05-18T13:32:41.704Z,3630
2017-05-18T13:33:57.118Z,3730
2017-05-18T13:35:10.100Z,3785
2017-05-18T13:36:25.533Z,3735
2017-05-18T13:37:38.021Z,3300
2017-05-18T13:38:52.158Z,3065
2017-05-18T13:40:07.810Z,2965
2017-05-18T13:41:23.194Z,3055
2017-05-18T13:42:37.139Z,3200
2017-05-18T13:43:51.257Z,3265
2017-05-18T13:45:07.100Z,3090
2017-05-18T13:46:21.275Z,2925
2017-05-18T13:47:35.396Z,2910
2017-05-18T13:48:49.485Z,3065
2017-05-18T13:50:05.079Z,3410
2017-05-18T13:51:20.441Z,3625
2017-05-18T13:52:34.559Z,3665
2017-05-18T13:53:48.638Z,3445
2017-05-18T13:55:04.018Z,3115
2017-05-18T13:56:19.703Z,2860
2017-05-18T13:57:34.538Z,2625
2017-05-18T13:58:49.940Z,2670
2017-05-18T14:00:05.306Z,3000
2017-05-18T14:01:19.732Z,3110
2017-05-18T14:02:35.182Z,3015
2017-05-18T14:03:49.259Z,2800
2017-05-18T14:05:03.340Z,2680
2017-05-18T14:06:19.080Z,2580
2017-05-18T14:07:33.159Z,2555
2017-05-18T14:08:47.304Z,2430
2017-05-18T14:10:02.706Z,2370
2017-05-18T14:11:16.991Z,2355
2017-05-18T14:12:31.124Z,2335
2017-05-18T14:13:45.225Z,2395
2017-05-18T14:15:00.604Z,2590
2017-05-18T14:16:16.516Z,2820
2017-05-18T14:17:31.913Z,3075
2017-05-18T14:18:47.135Z,3060
2017-05-18T14:20:01.231Z,2785
2017-05-18T14:21:16.862Z,2530
2017-05-18T14:22:30.989Z,2590
2017-05-18T14:23:46.381Z,2790
2017-05-18T14:25:01.803Z,3005
2017-05-18T14:26:17.502Z,2975
2017-05-18T14:27:31.645Z,2970
2017-05-18T14:28:47.030Z,3030
2017-05-18T14:30:01.015Z,3090
2017-05-18T14:31:16.684Z,2975
2017-05-18T14:32:32.125Z,2715
2017-05-18T14:33:46.350Z,2485
2017-05-18T14:35:01.746Z,2335
2017-05-18T14:36:15.860Z,2335
2017-05-18T14:37:31.745Z,2435
2017-05-18T14:38:47.247Z,2370
2017-05-18T14:40:02.607Z,2150
2017-05-18T14:41:18.379Z,1980
2017-05-18T14:42:32.289Z,1955
2017-05-18T14:43:46.372Z,2045
2017-05-18T14:45:01.759Z,2235
2017-05-18T14:46:48.007Z,2580
2017-05-18T14:48:03.703Z,2615
2017-05-18T14:49:19.082Z,2250
2017-05-18T14:50:33.058Z,1960
2017-05-18T14:51:48.435Z,1755
2017-05-18T14:53:02.732Z,765
2017-05-18T14:54:16.826Z,1870
2017-05-18T14:55:30.898Z,1865
2017-05-18T14:56:46.377Z,2095
2017-05-18T14:58:01.967Z,2090
2017-05-18T14:59:17.338Z,1865
2017-05-18T15:00:32.745Z,845
2017-05-18T15:01:48.140Z,670
2017-05-18T15:03:03.883Z,650
2017-05-18T15:04:18.052Z,1460
2017-05-18T15:05:33.666Z,1265
2017-05-18T15:06:47.761Z,680
2017-05-18T15:08:03.422Z,1085
2017-05-18T15:09:18.876Z,1885
2017-05-18T15:10:32.683Z,1240
2017-05-18T15:11:48.151Z,1105
2017-05-18T15:13:02.495Z,715
2017-05-18T15:14:12.589Z,640
2017-05-18T15:15:27.593Z,600
2017-05-18T15:16:42.971Z,575
2017-05-18T15:17:57.126Z,555
2017-05-18T15:19:12.825Z,555
2017-05-18T15:20:28.181Z,540
2017-05-18T15:21:43.593Z,525
2017-05-18T15:22:57.677Z,515
2017-05-18T15:24:13.322Z,515
2017-05-18T15:25:28.777Z,510
2017-05-18T15:26:41.560Z,510
2017-05-18T15:27:55.597Z,505
2017-05-18T15:29:11.272Z,500
2017-05-18T15:30:25.371Z,495
2017-05-18T15:31:40.877Z,495
2017-05-18T15:32:56.261Z,490
2017-05-18T15:34:09.400Z,485
2017-05-18T15:35:24.827Z,480
2017-05-18T15:36:40.289Z,470
2017-05-18T15:37:54.297Z,465
2017-05-18T15:39:09.894Z,460
2017-05-18T15:40:25.337Z,450
2017-05-18T15:41:40.733Z,450
2017-05-18T15:42:53.622Z,455
2017-05-18T15:44:09.197Z,455
2017-05-18T15:45:23.352Z,455
2017-05-18T15:46:37.108Z,460
2017-05-18T15:47:52.485Z,465
2017-05-18T15:49:05.190Z,465
2017-05-18T15:50:19.507Z,460
2017-05-18T15:51:34.882Z,465
2017-05-18T15:52:47.675Z,470
2017-05-18T15:54:03.043Z,470
2017-05-18T15:55:18.685Z,465
2017-05-18T15:56:34.273Z,455
2017-05-18T15:57:49.764Z,450
2017-05-18T15:59:05.442Z,440
2017-05-18T16:00:21.076Z,430
2017-05-18T16:01:36.483Z,410
2017-05-18T16:02:51.909Z,385
2017-05-18T16:04:07.307Z,360
2017-05-18T16:05:22.929Z,325
2017-05-18T16:06:38.304Z,295
2017-05-18T16:07:53.680Z,285
2017-05-18T16:09:07.736Z,270
2017-05-18T16:10:22.168Z,255
2017-05-18T16:11:38.034Z,225
2017-05-18T16:12:52.356Z,225
2017-05-18T16:14:06.424Z,230
2017-05-18T16:15:22.071Z,230
2017-05-18T16:17:07.077Z,210
2017-05-18T16:18:21.465Z,210
2017-05-18T16:19:36.857Z,200
2017-05-18T16:20:52.657Z,190
2017-05-18T16:22:08.721Z,185
2017-05-18T16:23:24.128Z,195
2017-05-18T16:24:39.494Z,200
2017-05-18T16:25:55.206Z,195
2017-05-18T16:27:10.607Z,185
2017-05-18T16:28:26.107Z,175
2017-05-18T16:29:41.465Z,185
2017-05-18T16:30:55.738Z,205
2017-05-18T16:32:11.116Z,205
2017-05-18T16:33:26.518Z,185
2017-05-18T16:34:41.902Z,155
2017-05-18T16:35:56.084Z,125
2017-05-18T16:37:10.146Z,110
2017-05-18T16:38:25.565Z,90
2017-05-18T16:39:41.218Z,80
2017-05-18T16:40:56.764Z,80
2017-05-18T16:42:12.484Z,75
2017-05-18T16:43:27.845Z,70
2017-05-18T16:44:43.221Z,55
2017-05-18T16:45:57.760Z,45
2017-05-18T16:47:13.117Z,35
2017-05-18T16:48:27.181Z,30
2017-05-18T16:49:42.564Z,30
2017-05-18T16:50:58.144Z,40
2017-05-18T16:52:13.591Z,35
2017-05-18T16:53:28.989Z,25
2017-05-18T16:54:44.598Z,20
2017-05-18T16:56:00.231Z,15
2017-05-18T16:57:14.545Z,20
2017-05-18T16:58:29.984Z,25
2017-05-18T16:59:44.060Z,30
2017-05-18T17:00:59.692Z,40
2017-05-18T17:02:13.823Z,45
2017-05-18T17:03:29.204Z,50
2017-05-18T17:04:43.277Z,60
2017-05-18T17:05:57.619Z,70
2017-05-18T17:07:12.980Z,80
2017-05-18T17:08:28.555Z,90
2017-05-18T17:09:42.652Z,100
2017-05-18T17:10:58.337Z,105
2017-05-18T17:12:13.752Z,105
2017-05-18T17:13:29.138Z,105
2017-05-18T17:14:44.494Z,110
2017-05-18T17:16:00.224Z,110
2017-05-18T17:17:15.574Z,110
2017-05-18T17:18:30.987Z,110
2017-05-18T17:19:46.605Z,100
2017-05-18T17:21:00.745Z,90
2017-05-18T17:22:16.206Z,95
2017-05-18T17:23:31.595Z,100
2017-05-18T17:24:44.271Z,100